Time;durP1;ratioP1;P1;durP2;ratioP2;P2;SDS_P1;SDS_P2;PMS_P1;PMS_P2;Temp;Humidity;BMP_temperature;BMP_pressure;BME280_temperature;BME280_humidity;BME280_pressure;Samples;Min_cycle;Max_cycle;Signal;HPM_P1;HPM_P2
2021/10/03 00:01:19;;;;;;;16.75;7.82;;;;;;;16.14;100.00;97108.44;4882305;29;20055;-82
2021/10/03 00:03:50;;;;;;;13.48;8.00;;;;;;;16.05;100.00;97118.78;4864882;29;20120;-78
2021/10/03 00:06:17;;;;;;;13.38;8.43;;;;;;;15.96;100.00;97112.00;4849919;29;20049;-81
2021/10/03 00:08:45;;;;;;;17.05;9.13;;;;;;;15.93;100.00;97112.72;4881505;29;20093;-82
2021/10/03 00:11:14;;;;;;;17.05;9.15;;;;;;;15.84;100.00;97107.50;4865193;29;20136;-82
2021/10/03 00:13:41;;;;;;;17.05;9.40;;;;;;;15.94;100.00;97117.03;4863113;29;20105;-82
2021/10/03 00:16:08;;;;;;;16.30;8.75;;;;;;;15.89;100.00;97118.13;4881918;29;20067;-80
2021/10/03 00:18:39;;;;;;;16.60;9.00;;;;;;;15.91;100.00;97115.81;4865367;29;20049;-80
2021/10/03 00:21:10;;;;;;;14.85;9.40;;;;;;;15.84;100.00;97112.16;4880947;29;20479;-78
2021/10/03 00:23:38;;;;;;;13.60;9.10;;;;;;;15.89;100.00;97111.88;4881983;29;20086;-81
2021/10/03 00:26:06;;;;;;;17.27;9.88;;;;;;;15.94;100.00;97125.22;4881754;29;20478;-78
2021/10/03 00:28:33;;;;;;;19.67;10.07;;;;;;;15.92;100.00;97116.63;4881994;29;20059;-82
2021/10/03 00:31:01;;;;;;;24.80;9.80;;;;;;;15.89;100.00;97118.13;4882289;29;20080;-80
2021/10/03 00:33:27;;;;;;;16.85;9.63;;;;;;;15.81;100.00;97115.63;4881822;29;20048;-82
2021/10/03 00:35:54;;;;;;;19.35;9.98;;;;;;;15.79;100.00;97118.72;4859730;29;20068;-82
2021/10/03 00:38:21;;;;;;;15.20;9.65;;;;;;;15.69;100.00;97102.91;4879383;29;20057;-80
2021/10/03 00:40:49;;;;;;;18.02;10.23;;;;;;;15.77;100.00;97110.09;4892007;29;20152;-81
2021/10/03 00:43:15;;;;;;;17.20;10.65;;;;;;;15.67;100.00;97110.66;4892117;29;20036;-78
2021/10/03 00:45:43;;;;;;;17.27;10.43;;;;;;;15.63;100.00;97100.84;4882504;29;20051;-82
2021/10/03 00:48:11;;;;;;;16.65;10.45;;;;;;;15.56;100.00;97101.50;4881231;29;20534;-83
2021/10/03 00:50:40;;;;;;;19.55;10.13;;;;;;;15.57;100.00;97089.44;4864433;29;20494;-81
2021/10/03 00:53:07;;;;;;;20.88;10.15;;;;;;;15.51;100.00;97091.66;4863916;29;20045;-78
2021/10/03 00:55:34;;;;;;;16.15;10.07;;;;;;;15.54;100.00;97090.13;4902132;23;20052;-80
2021/10/03 00:58:01;;;;;;;15.00;10.27;;;;;;;15.49;100.00;97093.16;4897333;29;20053;-80
2021/10/03 01:00:30;;;;;;;14.98;10.00;;;;;;;15.46;100.00;97075.56;4898306;29;20103;-81
2021/10/03 01:02:58;;;;;;;17.52;10.38;;;;;;;15.46;100.00;97077.50;4897927;29;20092;-81
2021/10/03 01:05:26;;;;;;;18.52;10.80;;;;;;;15.43;100.00;97080.94;4916693;29;20104;-80
2021/10/03 01:07:53;;;;;;;17.83;10.50;;;;;;;15.49;100.00;97065.88;4886006;29;20048;-82
2021/10/03 01:10:23;;;;;;;16.13;10.52;;;;;;;15.52;100.00;97079.59;4910715;23;20048;-79
2021/10/03 01:12:58;;;;;;;18.02;10.30;;;;;;;15.38;100.00;97075.78;4936969;29;20063;-81
2021/10/03 01:15:26;;;;;;;21.25;10.63;;;;;;;15.34;100.00;97074.91;4921085;29;20568;-80
2021/10/03 01:17:52;;;;;;;17.85;11.00;;;;;;;15.32;100.00;97071.75;4941296;29;20036;-78
2021/10/03 01:20:19;;;;;;;23.60;11.48;;;;;;;15.19;100.00;97067.59;4948749;29;20047;-79
2021/10/03 01:22:46;;;;;;;16.50;11.45;;;;;;;15.23;100.00;97073.88;4941500;29;20054;-80
2021/10/03 01:25:13;;;;;;;20.38;11.57;;;;;;;15.16;100.00;97077.28;4938164;29;20345;-81
2021/10/03 01:27:40;;;;;;;22.75;11.82;;;;;;;15.16;100.00;97065.56;4938055;29;20048;-81
2021/10/03 01:30:10;;;;;;;20.65;12.48;;;;;;;14.97;100.00;97067.13;4904327;29;20040;-81
2021/10/03 01:32:37;;;;;;;16.88;11.15;;;;;;;14.98;100.00;97060.53;4937469;29;20079;-81
2021/10/03 01:35:05;;;;;;;23.00;11.82;;;;;;;15.08;100.00;97064.63;4937488;29;20047;-81
2021/10/03 01:37:33;;;;;;;22.08;11.35;;;;;;;15.00;100.00;97060.19;4920389;29;20055;-79
2021/10/03 01:40:06;;;;;;;21.25;11.15;;;;;;;14.95;100.00;97076.81;4936983;29;20058;-80
2021/10/03 01:42:34;;;;;;;21.08;11.57;;;;;;;14.89;100.00;97073.56;4936591;29;20047;-78
2021/10/03 01:45:01;;;;;;;16.90;11.15;;;;;;;14.86;100.00;97063.41;4937573;29;20054;-81
2021/10/03 01:47:30;;;;;;;25.00;12.35;;;;;;;14.84;100.00;97057.50;4920404;29;20052;-81
2021/10/03 01:49:57;;;;;;;19.25;11.90;;;;;;;14.81;100.00;97054.72;4937271;29;20051;-80
2021/10/03 01:52:23;;;;;;;17.70;11.52;;;;;;;14.89;100.00;97065.38;4921055;29;20059;-82
2021/10/03 01:54:50;;;;;;;20.58;11.80;;;;;;;14.87;100.00;97070.41;4921367;29;20127;-81
2021/10/03 01:57:17;;;;;;;19.98;11.65;;;;;;;14.78;100.00;97069.03;4935664;29;20047;-79
2021/10/03 01:59:43;;;;;;;21.27;11.35;;;;;;;14.64;100.00;97069.50;4938792;29;20049;-82
2021/10/03 02:02:10;;;;;;;21.80;12.63;;;;;;;14.60;100.00;97067.84;4956216;29;20058;-79
2021/10/03 02:04:37;;;;;;;18.35;12.45;;;;;;;14.53;100.00;97067.69;4957228;29;20043;-77
2021/10/03 02:07:04;;;;;;;18.00;11.60;;;;;;;14.52;100.00;97058.72;4947902;29;20051;-79
2021/10/03 02:09:31;;;;;;;19.92;12.40;;;;;;;14.62;100.00;97062.84;4967365;29;20054;-77
2021/10/03 02:12:00;;;;;;;25.83;12.48;;;;;;;14.65;100.00;97062.94;4940892;29;20050;-81
2021/10/03 02:14:32;;;;;;;21.27;12.43;;;;;;;14.75;100.00;97067.81;4959110;29;20111;-79
2021/10/03 02:17:00;;;;;;;20.67;12.10;;;;;;;14.78;100.00;97072.56;4958790;29;20058;-78
2021/10/03 02:19:29;;;;;;;18.75;12.25;;;;;;;14.71;100.00;97066.16;4957306;28;20519;-80
2021/10/03 02:21:56;;;;;;;23.67;12.63;;;;;;;14.63;100.00;97075.31;4957475;29;20051;-83
2021/10/03 02:24:23;;;;;;;18.98;12.38;;;;;;;14.72;100.00;97065.81;4957325;29;20054;-80
2021/10/03 02:26:50;;;;;;;18.08;11.48;;;;;;;14.69;100.00;97065.72;4956553;29;20602;-80
2021/10/03 02:29:18;;;;;;;23.50;12.05;;;;;;;14.65;100.00;97075.75;4957162;29;20067;-81
2021/10/03 02:31:45;;;;;;;18.20;11.90;;;;;;;14.69;100.00;97077.41;4939028;29;20054;-82
2021/10/03 02:34:12;;;;;;;19.85;11.63;;;;;;;14.65;100.00;97082.00;4956450;29;20047;-83
2021/10/03 02:36:39;;;;;;;19.60;12.27;;;;;;;14.48;100.00;97078.88;4955187;29;20039;-78
2021/10/03 02:39:06;;;;;;;22.55;13.00;;;;;;;14.48;100.00;97076.13;4955961;29;20085;-80
2021/10/03 02:41:33;;;;;;;22.60;12.63;;;;;;;14.46;100.00;97079.19;4938959;29;20110;-81
2021/10/03 02:44:01;;;;;;;22.92;12.50;;;;;;;14.57;100.00;97079.44;4955103;29;20052;-78
2021/10/03 02:46:28;;;;;;;21.42;12.30;;;;;;;14.46;100.00;97087.38;4954083;29;20463;-81
2021/10/03 02:48:55;;;;;;;22.45;12.35;;;;;;;14.47;100.00;97080.78;4955867;29;20488;-80
2021/10/03 02:51:25;;;;;;;24.20;12.40;;;;;;;14.42;100.00;97086.50;4955584;29;20047;-76
2021/10/03 02:53:54;;;;;;;31.85;12.73;;;;;;;14.42;100.00;97075.63;4939727;29;20051;-81
2021/10/03 02:56:23;;;;;;;21.98;12.55;;;;;;;14.40;100.00;97088.00;4956702;29;20234;-80
2021/10/03 02:58:50;;;;;;;19.50;12.85;;;;;;;14.36;100.00;97085.19;4938654;29;20440;-82
2021/10/03 03:01:17;;;;;;;18.55;11.73;;;;;;;14.37;100.00;97084.06;4954966;29;20051;-80
2021/10/03 03:03:45;;;;;;;22.45;12.45;;;;;;;14.41;100.00;97078.66;4954494;29;20044;-79
2021/10/03 03:06:13;;;;;;;20.00;12.27;;;;;;;14.29;100.00;97069.44;4953677;29;20077;-79
2021/10/03 03:08:40;;;;;;;23.48;12.48;;;;;;;14.31;100.00;97075.34;4954978;29;20047;-79
2021/10/03 03:11:08;;;;;;;19.35;12.18;;;;;;;14.32;100.00;97070.69;4954908;29;20578;-83
2021/10/03 03:13:34;;;;;;;21.25;12.43;;;;;;;14.25;100.00;97059.59;4955222;29;20124;-79
2021/10/03 03:16:02;;;;;;;19.15;12.18;;;;;;;14.18;100.00;97064.88;4960368;29;20047;-76
2021/10/03 03:18:28;;;;;;;21.27;12.38;;;;;;;14.18;100.00;97062.16;4955667;29;20499;-81
2021/10/03 03:20:55;;;;;;;17.98;11.88;;;;;;;14.11;100.00;97059.25;4956070;29;20135;-81
2021/10/03 03:23:22;;;;;;;20.80;11.75;;;;;;;14.10;100.00;97060.38;4938172;29;20047;-79
2021/10/03 03:25:49;;;;;;;22.33;12.32;;;;;;;14.18;100.00;97062.16;4937814;29;20046;-80
2021/10/03 03:28:16;;;;;;;20.45;12.23;;;;;;;14.06;100.00;97052.16;4955290;29;20043;-81
2021/10/03 03:30:43;;;;;;;20.80;12.05;;;;;;;14.04;100.00;97056.38;4953665;28;20050;-81
2021/10/03 03:33:10;;;;;;;23.42;12.73;;;;;;;14.03;100.00;97052.84;4936989;29;20396;-80
2021/10/03 03:35:36;;;;;;;19.40;13.40;;;;;;;14.01;100.00;97059.78;4921063;29;20070;-81
2021/10/03 03:38:03;;;;;;;24.55;12.63;;;;;;;13.97;100.00;97058.88;4954715;29;20592;-82
2021/10/03 03:40:29;;;;;;;20.73;13.02;;;;;;;13.91;100.00;97054.88;4939410;29;20043;-79
2021/10/03 03:42:56;;;;;;;27.30;13.93;;;;;;;13.89;100.00;97038.88;4939308;29;20500;-80
2021/10/03 03:45:23;;;;;;;24.10;13.07;;;;;;;13.86;100.00;97055.13;4937496;29;20055;-80
2021/10/03 03:47:49;;;;;;;24.80;11.80;;;;;;;13.89;100.00;97038.06;4954365;29;20043;-81
2021/10/03 03:50:17;;;;;;;22.73;12.60;;;;;;;13.86;100.00;97047.72;4954098;29;20043;-78
2021/10/03 03:52:44;;;;;;;23.00;12.93;;;;;;;13.83;100.00;97047.66;4955203;29;20047;-81
2021/10/03 03:55:11;;;;;;;19.65;12.63;;;;;;;13.95;100.00;97037.47;4954418;29;20047;-79
2021/10/03 03:57:39;;;;;;;31.13;12.82;;;;;;;13.88;100.00;97036.50;4952992;29;20047;-77
2021/10/03 04:00:07;;;;;;;30.70;12.68;;;;;;;13.95;100.00;97033.97;4954124;29;20047;-80
2021/10/03 04:02:34;;;;;;;20.60;12.07;;;;;;;13.97;100.00;97042.56;4954385;29;20101;-80
2021/10/03 04:05:01;;;;;;;22.58;12.32;;;;;;;14.05;100.00;97022.53;4954324;29;20527;-80
2021/10/03 04:07:28;;;;;;;18.25;12.23;;;;;;;14.09;100.00;97028.88;4921465;29;20047;-83
2021/10/03 04:09:54;;;;;;;22.90;12.73;;;;;;;13.99;100.00;97038.34;4955170;29;20110;-79
2021/10/03 04:12:21;;;;;;;20.13;11.50;;;;;;;13.96;100.00;97039.03;4966731;29;20043;-78
2021/10/03 04:14:48;;;;;;;19.88;12.07;;;;;;;14.00;100.00;97033.69;4951856;29;20043;-79
2021/10/03 04:17:14;;;;;;;17.25;10.65;;;;;;;14.08;100.00;97035.47;4967729;29;20465;-81
2021/10/03 04:19:41;;;;;;;18.67;11.82;;;;;;;13.95;100.00;97028.53;4944814;29;20114;-76
2021/10/03 04:22:09;;;;;;;19.80;11.43;;;;;;;14.06;100.00;97033.09;4958027;29;20049;-78
2021/10/03 04:24:36;;;;;;;18.70;12.10;;;;;;;13.94;100.00;97030.44;4954326;29;20039;-80
2021/10/03 04:27:03;;;;;;;18.58;11.82;;;;;;;14.06;100.00;97024.13;4953926;29;20427;-79
2021/10/03 04:29:30;;;;;;;22.52;11.48;;;;;;;14.02;100.00;97025.97;4954866;29;20047;-79
2021/10/03 04:31:56;;;;;;;22.88;11.48;;;;;;;14.11;100.00;97013.78;4954144;29;20442;-81
2021/10/03 04:34:23;;;;;;;17.98;11.45;;;;;;;14.17;100.00;97019.72;4936995;29;20270;-81
2021/10/03 04:36:51;;;;;;;15.95;10.68;;;;;;;14.28;100.00;97021.56;4920866;29;20396;-80
2021/10/03 04:39:17;;;;;;;22.20;11.27;;;;;;;14.33;100.00;97018.59;4937187;29;20074;-81
2021/10/03 04:41:44;;;;;;;20.02;10.63;;;;;;;14.32;100.00;97019.75;4936550;29;20554;-79
2021/10/03 04:44:10;;;;;;;16.52;10.88;;;;;;;14.37;100.00;97021.41;4956745;29;20471;-81
2021/10/03 04:46:38;;;;;;;19.77;10.93;;;;;;;14.45;100.00;97025.09;4957602;29;20551;-79
2021/10/03 04:49:05;;;;;;;18.15;10.48;;;;;;;14.44;100.00;97020.78;4940990;29;20234;-80
2021/10/03 04:51:32;;;;;;;17.38;10.15;;;;;;;14.46;100.00;97021.22;4958303;29;20035;-80
2021/10/03 04:53:58;;;;;;;18.13;10.40;;;;;;;14.52;100.00;97023.31;4960182;29;20043;-78
2021/10/03 04:56:25;;;;;;;18.08;10.68;;;;;;;14.52;100.00;97008.91;4961243;29;20055;-81
2021/10/03 04:58:51;;;;;;;18.40;11.27;;;;;;;14.47;100.00;97009.19;4956234;29;20141;-82
2021/10/03 05:01:18;;;;;;;14.65;10.43;;;;;;;14.50;100.00;97013.94;4957796;29;20314;-80
2021/10/03 05:03:45;;;;;;;19.83;11.30;;;;;;;14.48;100.00;97014.25;4940141;29;20051;-78
2021/10/03 05:06:12;;;;;;;16.65;10.68;;;;;;;14.56;100.00;97023.38;4957116;29;20514;-80
2021/10/03 05:08:38;;;;;;;14.93;10.30;;;;;;;14.51;100.00;97010.84;4958070;29;20136;-77
2021/10/03 05:11:05;;;;;;;19.95;10.02;;;;;;;14.64;100.00;97016.94;4943628;29;20055;-79
2021/10/03 05:13:33;;;;;;;17.90;10.73;;;;;;;14.66;100.00;97022.84;4961248;29;20095;-79
2021/10/03 05:16:00;;;;;;;18.73;10.68;;;;;;;14.61;100.00;97015.72;4961495;29;20047;-77
2021/10/03 05:18:27;;;;;;;20.50;10.75;;;;;;;14.55;100.00;97017.16;4961746;29;20122;-76
2021/10/03 05:20:53;;;;;;;17.42;10.88;;;;;;;14.68;100.00;97020.56;4944181;29;20067;-78
2021/10/03 05:23:21;;;;;;;16.10;10.65;;;;;;;14.67;100.00;97019.75;4960946;29;20039;-78
2021/10/03 05:25:47;;;;;;;18.25;10.60;;;;;;;14.71;100.00;97019.84;4935337;29;20043;-79
2021/10/03 05:28:14;;;;;;;15.55;10.82;;;;;;;14.71;100.00;97025.31;4934719;29;20043;-77
2021/10/03 05:30:41;;;;;;;16.38;10.60;;;;;;;14.58;100.00;97010.97;4931969;29;20077;-80
2021/10/03 05:33:07;;;;;;;18.13;10.63;;;;;;;14.65;100.00;97008.44;4944107;29;20388;-79
2021/10/03 05:35:34;;;;;;;16.48;11.18;;;;;;;14.73;100.00;97007.44;4939750;29;20040;-80
2021/10/03 05:38:02;;;;;;;16.38;10.75;;;;;;;14.72;100.00;96997.69;4956969;29;20051;-81
2021/10/03 05:40:30;;;;;;;18.13;11.05;;;;;;;14.76;100.00;97003.22;4940386;29;20053;-80
2021/10/03 05:42:57;;;;;;;16.33;10.38;;;;;;;14.72;100.00;97005.84;4956629;29;20527;-80
2021/10/03 05:45:24;;;;;;;16.02;10.52;;;;;;;14.82;100.00;97007.22;4957915;29;20051;-78
2021/10/03 05:47:51;;;;;;;21.25;10.35;;;;;;;14.89;100.00;97010.88;4958031;29;20061;-81
2021/10/03 05:50:18;;;;;;;19.42;10.63;;;;;;;14.96;100.00;97013.78;4941703;29;20122;-81
2021/10/03 05:52:44;;;;;;;18.13;10.57;;;;;;;14.84;100.00;97015.84;4965080;29;20071;-81
2021/10/03 05:55:11;;;;;;;15.25;10.70;;;;;;;15.01;100.00;97015.44;4939349;29;20212;-84
2021/10/03 05:57:37;;;;;;;21.10;11.35;;;;;;;14.89;100.00;97007.41;4957167;29;20106;-84
2021/10/03 06:00:05;;;;;;;16.63;10.82;;;;;;;14.98;100.00;97013.41;4938279;29;20146;-80
2021/10/03 06:02:32;;;;;;;17.77;11.20;;;;;;;15.10;100.00;97012.50;4950915;29;20459;-81
2021/10/03 06:04:59;;;;;;;20.50;10.80;;;;;;;15.11;100.00;97003.16;4944304;29;20492;-81
2021/10/03 06:07:25;;;;;;;16.08;10.43;;;;;;;15.18;100.00;97001.34;4956733;29;20051;-83
2021/10/03 06:09:52;;;;;;;23.77;10.25;;;;;;;15.33;100.00;97014.09;4950063;29;20055;-81
2021/10/03 06:12:19;;;;;;;19.30;10.98;;;;;;;15.44;100.00;96997.94;4925403;29;20098;-80
2021/10/03 06:14:45;;;;;;;17.77;10.65;;;;;;;15.34;100.00;96982.19;4943756;29;20048;-84
2021/10/03 06:17:12;;;;;;;17.10;10.98;;;;;;;15.40;100.00;96991.66;4928497;29;20059;-82
2021/10/03 06:19:38;;;;;;;19.25;10.32;;;;;;;15.50;100.00;96993.81;4926910;29;20043;-83
2021/10/03 06:22:05;;;;;;;18.95;11.07;;;;;;;15.79;100.00;96997.84;4938072;29;20054;-79
2021/10/03 06:24:32;;;;;;;17.75;10.43;;;;;;;15.89;100.00;96995.28;4950284;29;20071;-81
2021/10/03 06:27:01;;;;;;;18.27;10.20;;;;;;;15.87;100.00;96994.84;4947494;29;20560;-82
2021/10/03 06:29:28;;;;;;;18.88;10.32;;;;;;;16.03;100.00;96987.31;4945051;29;20055;-84
2021/10/03 06:31:55;;;;;;;15.05;9.80;;;;;;;15.97;100.00;96999.72;4926821;29;20043;-81
2021/10/03 06:34:22;;;;;;;15.55;10.10;;;;;;;16.22;100.00;96989.19;4923237;29;20067;-80
2021/10/03 06:36:48;;;;;;;16.08;9.98;;;;;;;16.42;100.00;96998.06;4923008;29;20077;-81
2021/10/03 06:39:15;;;;;;;16.67;9.98;;;;;;;16.33;100.00;97003.00;4938716;29;20056;-82
2021/10/03 06:41:42;;;;;;;21.67;10.15;;;;;;;16.39;100.00;97002.31;4938159;29;20040;-81
2021/10/03 06:44:11;;;;;;;22.25;9.73;;;;;;;16.43;100.00;96999.66;4918169;29;20035;-81
2021/10/03 06:46:38;;;;;;;15.02;9.55;;;;;;;16.63;100.00;97009.31;4921863;29;20424;-80
2021/10/03 06:49:05;;;;;;;16.92;10.00;;;;;;;16.70;100.00;96998.50;4933278;29;20059;-81
2021/10/03 06:51:32;;;;;;;17.58;9.82;;;;;;;16.86;100.00;97001.84;4938528;29;20086;-82
2021/10/03 06:53:58;;;;;;;17.65;9.90;;;;;;;16.86;100.00;96992.84;4945234;29;20412;-82
2021/10/03 06:56:25;;;;;;;15.95;10.68;;;;;;;17.01;100.00;96989.16;4948486;29;20471;-79
2021/10/03 06:58:52;;;;;;;17.02;9.50;;;;;;;17.29;100.00;96997.69;4921006;29;20075;-79
2021/10/03 07:01:18;;;;;;;14.35;9.70;;;;;;;17.25;100.00;97008.59;4923789;29;20102;-78
2021/10/03 07:03:45;;;;;;;14.10;9.18;;;;;;;17.37;100.00;96997.38;4929237;29;20110;-80
2021/10/03 07:06:13;;;;;;;15.38;9.55;;;;;;;17.38;100.00;96989.97;4947738;29;20052;-80
2021/10/03 07:08:39;;;;;;;16.63;9.35;;;;;;;17.62;100.00;96994.16;4946152;29;20425;-80
2021/10/03 07:11:06;;;;;;;15.10;9.63;;;;;;;17.66;100.00;96989.50;4943729;23;20053;-78
2021/10/03 07:13:37;;;;;;;14.63;9.43;;;;;;;17.79;100.00;96982.59;4941465;29;20115;-78
2021/10/03 07:16:05;;;;;;;16.33;8.88;;;;;;;17.97;100.00;96983.53;4927307;29;20049;-77
2021/10/03 07:18:32;;;;;;;15.32;9.25;;;;;;;17.66;100.00;96990.28;4907902;29;20138;-78
2021/10/03 07:21:00;;;;;;;17.08;8.98;;;;;;;17.90;100.00;96994.44;4900073;29;20055;-75
2021/10/03 07:23:29;;;;;;;14.15;9.00;;;;;;;17.70;100.00;96982.91;4906851;29;20091;-77
2021/10/03 07:25:56;;;;;;;14.65;9.02;;;;;;;17.94;100.00;96973.31;4907365;29;20058;-77
2021/10/03 07:28:24;;;;;;;15.38;8.65;;;;;;;17.62;100.00;96988.69;4915293;29;20082;-77
2021/10/03 07:30:51;;;;;;;14.20;9.02;;;;;;;17.91;100.00;97005.00;4917423;29;20040;-78
2021/10/03 07:33:19;;;;;;;15.27;8.95;;;;;;;17.83;100.00;96991.63;4914943;29;20040;-77
2021/10/03 07:35:47;;;;;;;12.40;8.65;;;;;;;17.95;100.00;96994.09;4902736;29;20048;-78
2021/10/03 07:38:14;;;;;;;15.25;8.43;;;;;;;17.94;100.00;96976.84;4904127;29;20676;-79
2021/10/03 07:40:43;;;;;;;17.15;9.48;;;;;;;18.02;100.00;96999.59;4908810;29;20051;-80
2021/10/03 07:43:10;;;;;;;15.85;9.55;;;;;;;18.13;100.00;96991.47;4931590;29;20040;-81
2021/10/03 07:45:37;;;;;;;13.77;8.77;;;;;;;18.29;100.00;96995.53;4928036;29;20046;-81
2021/10/03 07:48:04;;;;;;;16.40;9.10;;;;;;;18.43;100.00;96990.13;4894266;29;20087;-80
2021/10/03 07:50:31;;;;;;;15.27;9.27;;;;;;;18.54;100.00;96990.25;4897244;29;20079;-82
2021/10/03 07:52:58;;;;;;;15.90;9.57;;;;;;;18.65;100.00;97005.59;4910752;29;20054;-82
2021/10/03 07:55:28;;;;;;;17.85;11.52;;;;;;;18.43;100.00;96994.84;4912656;29;20055;-82
2021/10/03 07:58:02;;;;;;;21.60;12.43;;;;;;;18.49;100.00;96998.84;4906038;29;20051;-81
2021/10/03 08:00:31;;;;;;;24.27;14.82;;;;;;;18.45;100.00;96998.75;4905963;29;20062;-81
2021/10/03 08:02:58;;;;;;;20.83;12.70;;;;;;;18.32;100.00;96997.53;4912946;29;20059;-80
2021/10/03 08:05:25;;;;;;;17.40;11.80;;;;;;;18.33;100.00;97009.25;4912468;29;20052;-82
2021/10/03 08:07:52;;;;;;;13.38;9.35;;;;;;;18.34;100.00;97000.66;4905292;29;20130;-80
2021/10/03 08:10:19;;;;;;;15.40;8.20;;;;;;;18.39;100.00;97005.78;4904773;29;20156;-81
2021/10/03 08:12:49;;;;;;;14.80;8.73;;;;;;;18.28;100.00;97002.19;4896664;29;20056;-80
2021/10/03 08:15:16;;;;;;;12.82;9.05;;;;;;;18.72;100.00;97006.81;4920356;29;20052;-80
2021/10/03 08:17:43;;;;;;;16.85;9.05;;;;;;;19.10;100.00;97012.50;4905260;29;20109;-80
2021/10/03 08:20:15;;;;;;;12.38;8.38;;;;;;;19.10;100.00;97003.47;4906199;29;20052;-81
2021/10/03 08:22:41;;;;;;;13.13;8.10;;;;;;;19.06;100.00;97010.91;4920477;29;20039;-80
2021/10/03 08:25:08;;;;;;;15.32;9.30;;;;;;;19.00;100.00;97006.94;4904673;29;20051;-79
2021/10/03 08:27:36;;;;;;;12.95;8.88;;;;;;;19.07;100.00;96994.06;4903199;29;20054;-79
2021/10/03 08:30:05;;;;;;;14.38;8.60;;;;;;;19.05;100.00;97009.31;4920176;29;20050;-82
2021/10/03 08:32:32;;;;;;;11.25;7.82;;;;;;;19.16;99.32;97001.94;4903871;29;20189;-82
2021/10/03 08:34:59;;;;;;;13.95;8.68;;;;;;;19.10;99.60;97001.50;4897428;29;20054;-81
2021/10/03 08:37:26;;;;;;;14.52;8.55;;;;;;;19.05;99.33;96999.16;4900285;29;20213;-81
2021/10/03 08:39:53;;;;;;;14.38;8.48;;;;;;;19.23;100.00;97001.97;4900355;29;20051;-81
2021/10/03 08:42:20;;;;;;;11.98;8.18;;;;;;;19.52;93.89;97000.13;4891146;29;20056;-80
2021/10/03 08:44:49;;;;;;;14.60;8.13;;;;;;;19.48;96.06;96997.38;4881292;29;20048;-81
2021/10/03 08:47:16;;;;;;;14.30;8.13;;;;;;;19.18;94.73;96994.09;4899037;29;20317;-82
2021/10/03 08:49:43;;;;;;;13.77;7.65;;;;;;;19.45;96.52;96992.66;4885378;29;20079;-82
2021/10/03 08:52:10;;;;;;;16.05;7.82;;;;;;;19.88;90.54;96991.56;4894592;29;20051;-83
2021/10/03 08:54:39;;;;;;;12.30;7.43;;;;;;;19.96;88.23;96997.06;4905184;29;20107;-82
2021/10/03 08:57:11;;;;;;;10.90;7.40;;;;;;;19.97;84.97;96988.44;4919211;29;20086;-82
2021/10/03 09:00:09;;;;;;;11.45;7.75;;;;;;;20.92;82.38;96996.63;4903873;29;20048;-83
2021/10/03 09:03:00;;;;;;;12.80;8.55;;;;;;;20.87;73.62;96988.78;4883114;29;20078;-83
2021/10/03 09:05:30;;;;;;;16.70;10.20;;;;;;;20.85;72.69;96991.13;4885283;29;20052;-82
2021/10/03 09:08:10;;;;;;;27.50;15.63;;;;;;;21.60;70.72;96986.88;4884190;29;20064;-82
2021/10/03 09:11:03;;;;;;;19.65;11.00;;;;;;;21.69;65.48;96981.72;4885685;29;20051;-83
2021/10/03 09:13:30;;;;;;;22.75;12.30;;;;;;;21.86;63.59;96991.09;4901395;29;20102;-83
2021/10/03 09:16:03;;;;;;;29.60;13.50;;;;;;;22.07;60.59;96974.41;4901410;29;20118;-84
2021/10/03 09:18:52;;;;;;;23.48;10.73;;;;;;;22.36;60.57;96980.47;4915162;29;20461;-84
2021/10/03 09:21:30;;;;;;;31.40;15.30;;;;;;;22.04;62.27;96985.47;4888064;29;20060;-82
2021/10/03 09:24:05;;;;;;;13.55;9.63;;;;;;;22.33;60.93;96976.53;4898474;29;20052;-82
2021/10/03 09:26:35;;;;;;;16.55;11.20;;;;;;;22.47;61.27;96988.66;4884685;29;20075;-84
2021/10/03 09:29:25;;;;;;;18.25;9.95;;;;;;;22.98;59.28;96985.78;4883466;29;20063;-83
2021/10/03 09:32:18;;;;;;;12.15;7.25;;;;;;;22.55;58.85;96995.66;4883312;29;20044;-84
2021/10/03 09:34:50;;;;;;;10.40;7.03;;;;;;;22.42;60.38;96989.88;4882958;29;20152;-83
2021/10/03 09:37:16;;;;;;;10.88;7.05;;;;;;;22.88;56.67;96990.22;4883656;29;20060;-84
2021/10/03 09:39:43;;;;;;;10.85;6.97;;;;;;;22.76;56.23;96987.22;4883192;29;20095;-84
2021/10/03 09:42:15;;;;;;;11.98;7.50;;;;;;;22.96;57.21;96985.41;4882914;29;20051;-83
2021/10/03 09:45:13;;;;;;;10.80;7.45;;;;;;;23.11;55.70;96983.25;4884782;29;20123;-83
2021/10/03 09:47:43;;;;;;;15.00;8.35;;;;;;;23.47;54.26;96982.44;4884535;29;20064;-85
2021/10/03 09:50:13;;;;;;;13.10;8.05;;;;;;;23.44;54.95;96988.78;4896332;29;20066;-83
2021/10/03 09:52:42;;;;;;;12.90;7.68;;;;;;;23.43;55.78;96983.69;4904315;29;20348;-83
2021/10/03 09:55:14;;;;;;;12.57;6.75;;;;;;;23.22;55.65;96984.72;4903014;29;20044;-83
2021/10/03 09:57:42;;;;;;;8.38;6.22;;;;;;;23.15;57.86;96981.25;4919349;29;20056;-84
2021/10/03 10:00:11;;;;;;;10.57;5.88;;;;;;;22.98;55.93;96971.97;4886703;29;20147;-83
2021/10/03 10:02:39;;;;;;;8.27;5.72;;;;;;;23.46;55.36;96977.34;4915633;29;20048;-83
2021/10/03 10:05:07;;;;;;;9.82;6.32;;;;;;;23.36;56.76;96981.78;4900305;29;20040;-84
2021/10/03 10:07:33;;;;;;;8.25;5.43;;;;;;;23.26;56.83;96977.16;4884763;29;20119;-82
2021/10/03 10:10:01;;;;;;;8.15;6.13;;;;;;;23.27;54.58;96975.97;4894860;29;20143;-83
2021/10/03 10:12:31;;;;;;;9.05;5.70;;;;;;;23.17;56.25;96967.81;4884269;29;20060;-83
2021/10/03 10:15:01;;;;;;;8.77;5.47;;;;;;;24.69;51.14;96963.56;4883206;29;20062;-82
2021/10/03 10:17:37;;;;;;;12.00;6.10;;;;;;;26.12;47.11;96963.72;4885818;29;20052;-83
2021/10/03 10:20:24;;;;;;;9.50;5.30;;;;;;;28.37;41.80;96964.06;4892998;29;20052;-84
2021/10/03 10:22:58;;;;;;;7.05;4.45;;;;;;;27.74;40.66;96966.88;4866981;29;20116;-85
2021/10/03 10:25:43;;;;;;;9.43;4.85;;;;;;;27.14;43.17;96961.06;4867896;29;20108;-84
2021/10/03 10:28:27;;;;;;;8.32;5.57;;;;;;;27.17;44.10;96968.53;4884870;29;20068;-84
2021/10/03 10:31:14;;;;;;;8.48;4.95;;;;;;;26.58;45.63;96973.69;4881851;29;20086;-84
2021/10/03 10:33:50;;;;;;;6.32;4.68;;;;;;;25.38;45.23;96971.69;4877787;29;20165;-83
2021/10/03 10:36:22;;;;;;;9.55;4.68;;;;;;;26.04;45.91;96964.31;4865927;29;20060;-83
2021/10/03 10:39:16;;;;;;;10.02;5.32;;;;;;;25.32;47.68;96965.06;4872251;29;20445;-84
2021/10/03 10:41:45;;;;;;;7.80;5.30;;;;;;;25.30;46.73;96963.94;4885870;29;20058;-85
2021/10/03 10:44:25;;;;;;;7.20;5.35;;;;;;;25.18;46.83;96961.84;4879925;29;20231;-84
2021/10/03 10:46:59;;;;;;;9.93;5.63;;;;;;;24.97;46.18;96957.50;4896786;29;20385;-86
2021/10/03 10:49:29;;;;;;;8.90;5.05;;;;;;;25.42;46.71;96958.53;4896293;29;20056;-84
2021/10/03 10:52:18;;;;;;;9.43;5.68;;;;;;;25.85;46.00;96961.19;4887138;29;20304;-83
2021/10/03 10:55:04;;;;;;;7.78;5.50;;;;;;;26.06;44.55;96957.13;4899772;29;20044;-83
2021/10/03 10:57:52;;;;;;;10.85;5.07;;;;;;;26.39;44.86;96967.03;4899998;29;20060;-82
2021/10/03 11:00:30;;;;;;;9.35;4.65;;;;;;;26.28;46.19;96960.94;4896409;29;20052;-82
2021/10/03 11:03:02;;;;;;;7.07;5.18;;;;;;;27.78;42.85;96957.19;4882209;29;20048;-83
2021/10/03 11:05:32;;;;;;;6.50;5.13;;;;;;;28.41;41.11;96954.41;4887064;29;20591;-83
2021/10/03 11:08:21;;;;;;;8.45;5.22;;;;;;;31.47;35.67;96948.31;4891736;29;20239;-84
2021/10/03 11:10:57;;;;;;;6.35;4.70;;;;;;;33.06;33.39;96944.06;4898892;29;20056;-83
2021/10/03 11:13:38;;;;;;;6.85;5.00;;;;;;;30.81;36.05;96931.25;4901502;29;20155;-83
2021/10/03 11:16:27;;;;;;;8.30;4.65;;;;;;;32.02;34.63;96940.53;4903515;29;20048;-84
2021/10/03 11:20:00;;;;;;;9.00;5.18;;;;;;;32.16;34.01;96925.81;4906044;29;20051;-83
2021/10/03 11:22:40;;;;;;;11.82;5.30;;;;;;;32.61;34.48;96942.41;4886401;29;20426;-83
2021/10/03 11:25:16;;;;;;;6.20;5.13;;;;;;;32.77;33.83;96934.81;4897419;29;20071;-83